sensor_id;sensor_type;location;lat;lon;timestamp;temperature;humidity
12477;DHT22;6303;51.504;6.300;2023-10-09T00:02:08;24.50;68.60
12477;DHT22;6303;51.504;6.300;2023-10-09T00:04:37;24.50;68.60
12477;DHT22;6303;51.504;6.300;2023-10-09T00:07:07;24.50;68.70
12477;DHT22;6303;51.504;6.300;2023-10-09T00:09:36;24.50;68.40
12477;DHT22;6303;51.504;6.300;2023-10-09T00:12:15;24.60;68.60
12477;DHT22;6303;51.504;6.300;2023-10-09T00:14:48;24.60;68.90
12477;DHT22;6303;51.504;6.300;2023-10-09T00:17:17;24.60;68.80
12477;DHT22;6303;51.504;6.300;2023-10-09T00:19:45;24.60;68.70
12477;DHT22;6303;51.504;6.300;2023-10-09T00:22:15;24.60;68.70
12477;DHT22;6303;51.504;6.300;2023-10-09T00:24:52;24.60;68.70
12477;DHT22;6303;51.504;6.300;2023-10-09T00:27:39;24.60;68.70
12477;DHT22;6303;51.504;6.300;2023-10-09T00:30:10;24.60;68.80
12477;DHT22;6303;51.504;6.300;2023-10-09T00:32:41;24.60;69.40
12477;DHT22;6303;51.504;6.300;2023-10-09T00:35:12;24.60;68.60
12477;DHT22;6303;51.504;6.300;2023-10-09T00:37:56;24.60;68.90
12477;DHT22;6303;51.504;6.300;2023-10-09T00:40:30;24.60;69.00
12477;DHT22;6303;51.504;6.300;2023-10-09T00:43:02;24.60;69.00
12477;DHT22;6303;51.504;6.300;2023-10-09T00:45:32;24.60;68.90
12477;DHT22;6303;51.504;6.300;2023-10-09T00:48:06;24.60;68.80
12477;DHT22;6303;51.504;6.300;2023-10-09T00:50:34;25.60;69.50
12477;DHT22;6303;51.504;6.300;2023-10-09T00:53:05;24.60;68.80
12477;DHT22;6303;51.504;6.300;2023-10-09T00:55:39;24.60;68.90
12477;DHT22;6303;51.504;6.300;2023-10-09T00:58:18;24.60;68.60
12477;DHT22;6303;51.504;6.300;2023-10-09T01:00:50;24.60;68.70
12477;DHT22;6303;51.504;6.300;2023-10-09T01:03:19;24.60;68.90
12477;DHT22;6303;51.504;6.300;2023-10-09T01:05:49;24.60;69.10
12477;DHT22;6303;51.504;6.300;2023-10-09T01:08:23;24.60;69.00
12477;DHT22;6303;51.504;6.300;2023-10-09T01:10:57;24.60;69.10
12477;DHT22;6303;51.504;6.300;2023-10-09T01:13:26;24.60;69.20
12477;DHT22;6303;51.504;6.300;2023-10-09T01:16:06;24.60;69.20
12477;DHT22;6303;51.504;6.300;2023-10-09T01:18:38;24.60;69.50
12477;DHT22;6303;51.504;6.300;2023-10-09T01:21:09;24.60;70.10
12477;DHT22;6303;51.504;6.300;2023-10-09T01:23:40;24.60;69.20
12477;DHT22;6303;51.504;6.300;2023-10-09T01:26:24;24.60;69.00
12477;DHT22;6303;51.504;6.300;2023-10-09T01:28:51;24.60;69.00
12477;DHT22;6303;51.504;6.300;2023-10-09T01:31:24;24.60;69.20
12477;DHT22;6303;51.504;6.300;2023-10-09T01:34:03;24.60;69.20
12477;DHT22;6303;51.504;6.300;2023-10-09T01:36:36;24.60;69.30
12477;DHT22;6303;51.504;6.300;2023-10-09T01:39:06;24.60;69.30
12477;DHT22;6303;51.504;6.300;2023-10-09T01:41:35;24.00;69.00
12477;DHT22;6303;51.504;6.300;2023-10-09T01:44:11;24.60;69.40
12477;DHT22;6303;51.504;6.300;2023-10-09T01:46:42;24.60;69.50
12477;DHT22;6303;51.504;6.300;2023-10-09T01:49:12;24.60;69.60
12477;DHT22;6303;51.504;6.300;2023-10-09T01:51:43;24.60;69.60
12477;DHT22;6303;51.504;6.300;2023-10-09T01:54:12;24.60;69.70
12477;DHT22;6303;51.504;6.300;2023-10-09T01:56:59;24.60;69.60
12477;DHT22;6303;51.504;6.300;2023-10-09T01:59:32;24.60;69.70
12477;DHT22;6303;51.504;6.300;2023-10-09T02:02:02;24.60;69.70
12477;DHT22;6303;51.504;6.300;2023-10-09T02:04:40;24.60;69.50
12477;DHT22;6303;51.504;6.300;2023-10-09T02:07:07;24.60;69.50
12477;DHT22;6303;51.504;6.300;2023-10-09T02:09:37;24.60;69.60
12477;DHT22;6303;51.504;6.300;2023-10-09T02:12:11;24.60;69.50
12477;DHT22;6303;51.504;6.300;2023-10-09T02:14:39;24.60;69.50
12477;DHT22;6303;51.504;6.300;2023-10-09T02:17:08;24.60;69.60
12477;DHT22;6303;51.504;6.300;2023-10-09T02:19:44;24.60;69.60
12477;DHT22;6303;51.504;6.300;2023-10-09T02:22:15;24.60;69.60
12477;DHT22;6303;51.504;6.300;2023-10-09T02:24:45;24.60;69.60
12477;DHT22;6303;51.504;6.300;2023-10-09T02:27:24;24.60;69.60
12477;DHT22;6303;51.504;6.300;2023-10-09T02:30:08;24.60;69.70
12477;DHT22;6303;51.504;6.300;2023-10-09T02:32:42;24.60;69.60
12477;DHT22;6303;51.504;6.300;2023-10-09T02:35:10;24.60;69.60
12477;DHT22;6303;51.504;6.300;2023-10-09T02:38:01;24.60;69.60
12477;DHT22;6303;51.504;6.300;2023-10-09T02:40:33;24.60;69.60
12477;DHT22;6303;51.504;6.300;2023-10-09T02:43:07;24.60;69.70
12477;DHT22;6303;51.504;6.300;2023-10-09T02:45:39;24.60;69.70
12477;DHT22;6303;51.504;6.300;2023-10-09T02:48:17;24.60;69.70
12477;DHT22;6303;51.504;6.300;2023-10-09T02:50:46;24.60;69.70
12477;DHT22;6303;51.504;6.300;2023-10-09T02:53:16;24.60;69.60
12477;DHT22;6303;51.504;6.300;2023-10-09T02:55:56;24.60;69.70
12477;DHT22;6303;51.504;6.300;2023-10-09T02:58:39;24.60;69.60
12477;DHT22;6303;51.504;6.300;2023-10-09T03:01:10;24.60;69.70
12477;DHT22;6303;51.504;6.300;2023-10-09T03:03:40;24.50;69.70
12477;DHT22;6303;51.504;6.300;2023-10-09T03:06:11;24.50;69.70
12477;DHT22;6303;51.504;6.300;2023-10-09T03:08:39;24.50;69.70
12477;DHT22;6303;51.504;6.300;2023-10-09T03:11:09;24.50;69.60
12477;DHT22;6303;51.504;6.300;2023-10-09T03:13:41;24.50;69.60
12477;DHT22;6303;51.504;6.300;2023-10-09T03:16:10;24.50;69.60
12477;DHT22;6303;51.504;6.300;2023-10-09T03:18:46;24.50;69.60
12477;DHT22;6303;51.504;6.300;2023-10-09T03:21:13;24.50;69.60
12477;DHT22;6303;51.504;6.300;2023-10-09T03:23:43;24.50;69.60
12477;DHT22;6303;51.504;6.300;2023-10-09T03:26:16;24.50;69.60
12477;DHT22;6303;51.504;6.300;2023-10-09T03:28:45;24.50;69.60
12477;DHT22;6303;51.504;6.300;2023-10-09T03:31:13;24.50;69.60
12477;DHT22;6303;51.504;6.300;2023-10-09T03:33:40;24.50;69.60
12477;DHT22;6303;51.504;6.300;2023-10-09T03:36:07;24.50;69.60
12477;DHT22;6303;51.504;6.300;2023-10-09T03:38:36;24.50;69.60
12477;DHT22;6303;51.504;6.300;2023-10-09T03:41:04;24.50;69.70
12477;DHT22;6303;51.504;6.300;2023-10-09T03:43:34;24.50;69.70
12477;DHT22;6303;51.504;6.300;2023-10-09T03:46:05;24.50;69.70
12477;DHT22;6303;51.504;6.300;2023-10-09T03:48:40;24.50;69.60
12477;DHT22;6303;51.504;6.300;2023-10-09T03:51:09;24.50;69.60
12477;DHT22;6303;51.504;6.300;2023-10-09T03:53:39;24.50;69.80
12477;DHT22;6303;51.504;6.300;2023-10-09T03:56:07;24.50;69.80
12477;DHT22;6303;51.504;6.300;2023-10-09T03:58:40;24.50;69.80
12477;DHT22;6303;51.504;6.300;2023-10-09T04:01:09;24.50;69.80
12477;DHT22;6303;51.504;6.300;2023-10-09T04:03:43;24.50;69.80
12477;DHT22;6303;51.504;6.300;2023-10-09T04:06:10;24.50;69.80
12477;DHT22;6303;51.504;6.300;2023-10-09T04:08:37;24.50;69.70
12477;DHT22;6303;51.504;6.300;2023-10-09T04:11:10;24.50;69.60
12477;DHT22;6303;51.504;6.300;2023-10-09T04:13:44;24.50;69.60
12477;DHT22;6303;51.504;6.300;2023-10-09T04:16:13;24.50;69.70
12477;DHT22;6303;51.504;6.300;2023-10-09T04:18:53;24.50;69.60
12477;DHT22;6303;51.504;6.300;2023-10-09T04:21:22;24.50;69.60
12477;DHT22;6303;51.504;6.300;2023-10-09T04:24:00;24.50;69.60
12477;DHT22;6303;51.504;6.300;2023-10-09T04:26:49;24.50;69.60
12477;DHT22;6303;51.504;6.300;2023-10-09T04:29:23;24.50;69.60
12477;DHT22;6303;51.504;6.300;2023-10-09T04:31:53;24.50;69.60
12477;DHT22;6303;51.504;6.300;2023-10-09T04:34:22;24.50;69.60
12477;DHT22;6303;51.504;6.300;2023-10-09T04:36:48;24.50;69.50
12477;DHT22;6303;51.504;6.300;2023-10-09T04:39:18;24.50;69.60
12477;DHT22;6303;51.504;6.300;2023-10-09T04:41:59;24.50;69.60
12477;DHT22;6303;51.504;6.300;2023-10-09T04:44:42;25.00;70.00
12477;DHT22;6303;51.504;6.300;2023-10-09T04:47:30;24.50;69.70
12477;DHT22;6303;51.504;6.300;2023-10-09T04:50:02;24.50;69.60
12477;DHT22;6303;51.504;6.300;2023-10-09T04:52:32;24.50;69.70
12477;DHT22;6303;51.504;6.300;2023-10-09T04:55:17;24.50;69.70
12477;DHT22;6303;51.504;6.300;2023-10-09T04:57:46;24.50;69.70
12477;DHT22;6303;51.504;6.300;2023-10-09T05:00:28;24.50;69.70
12477;DHT22;6303;51.504;6.300;2023-10-09T05:03:12;24.50;69.70
12477;DHT22;6303;51.504;6.300;2023-10-09T05:05:53;24.50;69.70
12477;DHT22;6303;51.504;6.300;2023-10-09T05:08:26;24.50;69.70
12477;DHT22;6303;51.504;6.300;2023-10-09T05:10:56;24.50;69.80
12477;DHT22;6303;51.504;6.300;2023-10-09T05:13:41;24.50;69.80
12477;DHT22;6303;51.504;6.300;2023-10-09T05:16:24;24.50;69.80
12477;DHT22;6303;51.504;6.300;2023-10-09T05:18:53;24.40;69.80
12477;DHT22;6303;51.504;6.300;2023-10-09T05:21:23;24.40;69.80
12477;DHT22;6303;51.504;6.300;2023-10-09T05:24:04;24.40;69.80
12477;DHT22;6303;51.504;6.300;2023-10-09T05:26:46;24.50;69.90
12477;DHT22;6303;51.504;6.300;2023-10-09T05:29:19;24.50;69.90
12477;DHT22;6303;51.504;6.300;2023-10-09T05:31:47;24.40;69.80
12477;DHT22;6303;51.504;6.300;2023-10-09T05:34:23;24.40;69.80
12477;DHT22;6303;51.504;6.300;2023-10-09T05:36:59;24.40;70.00
12477;DHT22;6303;51.504;6.300;2023-10-09T05:39:43;24.40;69.90
12477;DHT22;6303;51.504;6.300;2023-10-09T05:42:24;24.40;69.90
12477;DHT22;6303;51.504;6.300;2023-10-09T05:44:55;24.40;70.00
12477;DHT22;6303;51.504;6.300;2023-10-09T05:47:43;24.40;70.10
12477;DHT22;6303;51.504;6.300;2023-10-09T05:50:19;24.40;70.00
12477;DHT22;6303;51.504;6.300;2023-10-09T05:53:00;24.40;70.00
12477;DHT22;6303;51.504;6.300;2023-10-09T05:55:33;24.40;70.00
12477;DHT22;6303;51.504;6.300;2023-10-09T05:58:35;24.40;70.00
12477;DHT22;6303;51.504;6.300;2023-10-09T06:01:19;24.40;70.00
12477;DHT22;6303;51.504;6.300;2023-10-09T06:04:10;23.60;69.40
12477;DHT22;6303;51.504;6.300;2023-10-09T06:06:43;24.40;69.90
12477;DHT22;6303;51.504;6.300;2023-10-09T06:09:12;24.40;69.80
12477;DHT22;6303;51.504;6.300;2023-10-09T06:11:56;24.40;69.80
12477;DHT22;6303;51.504;6.300;2023-10-09T06:14:43;24.40;69.80
12477;DHT22;6303;51.504;6.300;2023-10-09T06:17:15;24.40;69.70
12477;DHT22;6303;51.504;6.300;2023-10-09T06:19:51;24.40;69.60
12477;DHT22;6303;51.504;6.300;2023-10-09T06:22:25;24.40;69.60
12477;DHT22;6303;51.504;6.300;2023-10-09T06:25:09;24.40;69.50
12477;DHT22;6303;51.504;6.300;2023-10-09T06:27:37;24.40;69.40
12477;DHT22;6303;51.504;6.300;2023-10-09T06:30:22;24.40;69.40
12477;DHT22;6303;51.504;6.300;2023-10-09T06:32:53;24.50;69.40
12477;DHT22;6303;51.504;6.300;2023-10-09T06:35:46;24.50;69.30
12477;DHT22;6303;51.504;6.300;2023-10-09T06:38:20;24.50;69.20
12477;DHT22;6303;51.504;6.300;2023-10-09T06:40:59;24.50;69.20
12477;DHT22;6303;51.504;6.300;2023-10-09T06:43:43;24.50;69.00
12477;DHT22;6303;51.504;6.300;2023-10-09T06:46:16;24.50;68.90
12477;DHT22;6303;51.504;6.300;2023-10-09T06:49:09;24.50;68.90
12477;DHT22;6303;51.504;6.300;2023-10-09T06:51:57;24.50;68.90
12477;DHT22;6303;51.504;6.300;2023-10-09T06:54:40;24.50;68.90
12477;DHT22;6303;51.504;6.300;2023-10-09T06:57:16;24.60;68.90
12477;DHT22;6303;51.504;6.300;2023-10-09T07:00:04;24.60;68.90
12477;DHT22;6303;51.504;6.300;2023-10-09T07:02:49;24.60;68.80
12477;DHT22;6303;51.504;6.300;2023-10-09T07:05:19;24.60;68.80
12477;DHT22;6303;51.504;6.300;2023-10-09T07:07:47;24.40;68.90
12477;DHT22;6303;51.504;6.300;2023-10-09T07:10:22;24.60;69.00
12477;DHT22;6303;51.504;6.300;2023-10-09T07:13:00;24.60;69.00
12477;DHT22;6303;51.504;6.300;2023-10-09T07:15:29;24.60;69.00
12477;DHT22;6303;51.504;6.300;2023-10-09T07:18:13;24.60;68.90
12477;DHT22;6303;51.504;6.300;2023-10-09T07:20:49;24.60;68.80
12477;DHT22;6303;51.504;6.300;2023-10-09T07:23:29;24.70;68.90
12477;DHT22;6303;51.504;6.300;2023-10-09T07:26:03;24.70;68.80
12477;DHT22;6303;51.504;6.300;2023-10-09T07:28:44;24.70;68.60
12477;DHT22;6303;51.504;6.300;2023-10-09T07:31:18;24.70;68.60
12477;DHT22;6303;51.504;6.300;2023-10-09T07:33:53;24.70;68.50
12477;DHT22;6303;51.504;6.300;2023-10-09T07:36:35;24.70;68.60
12477;DHT22;6303;51.504;6.300;2023-10-09T07:39:05;24.70;68.50
12477;DHT22;6303;51.504;6.300;2023-10-09T07:41:41;24.70;68.40
12477;DHT22;6303;51.504;6.300;2023-10-09T07:44:21;24.70;68.40
12477;DHT22;6303;51.504;6.300;2023-10-09T07:47:04;24.80;68.00
12477;DHT22;6303;51.504;6.300;2023-10-09T07:49:43;24.80;67.60
12477;DHT22;6303;51.504;6.300;2023-10-09T07:52:15;24.80;67.50
12477;DHT22;6303;51.504;6.300;2023-10-09T07:54:44;24.80;67.40
12477;DHT22;6303;51.504;6.300;2023-10-09T07:57:20;24.80;67.40
12477;DHT22;6303;51.504;6.300;2023-10-09T07:59:51;24.80;67.40
12477;DHT22;6303;51.504;6.300;2023-10-09T08:02:28;24.80;67.30
12477;DHT22;6303;51.504;6.300;2023-10-09T08:04:59;24.80;67.30
12477;DHT22;6303;51.504;6.300;2023-10-09T08:07:44;24.80;67.30
12477;DHT22;6303;51.504;6.300;2023-10-09T08:10:22;24.80;67.30
12477;DHT22;6303;51.504;6.300;2023-10-09T08:13:07;24.80;67.50
12477;DHT22;6303;51.504;6.300;2023-10-09T08:16:00;24.80;67.60
12477;DHT22;6303;51.504;6.300;2023-10-09T08:18:30;24.80;67.60
12477;DHT22;6303;51.504;6.300;2023-10-09T08:20:57;24.80;67.60
12477;DHT22;6303;51.504;6.300;2023-10-09T08:23:42;24.80;67.70
12477;DHT22;6303;51.504;6.300;2023-10-09T08:26:18;24.80;67.70
12477;DHT22;6303;51.504;6.300;2023-10-09T08:28:55;24.80;67.80
12477;DHT22;6303;51.504;6.300;2023-10-09T08:31:42;24.80;67.80
12477;DHT22;6303;51.504;6.300;2023-10-09T08:34:14;24.80;67.80
12477;DHT22;6303;51.504;6.300;2023-10-09T08:36:51;24.80;67.90
12477;DHT22;6303;51.504;6.300;2023-10-09T08:39:21;24.80;67.90
12477;DHT22;6303;51.504;6.300;2023-10-09T08:42:03;24.80;67.90
12477;DHT22;6303;51.504;6.300;2023-10-09T08:44:34;24.80;68.10
12477;DHT22;6303;51.504;6.300;2023-10-09T08:47:04;24.80;67.90
12477;DHT22;6303;51.504;6.300;2023-10-09T08:49:33;24.90;67.80
12477;DHT22;6303;51.504;6.300;2023-10-09T08:52:01;24.90;67.80
12477;DHT22;6303;51.504;6.300;2023-10-09T08:54:30;24.90;67.70
12477;DHT22;6303;51.504;6.300;2023-10-09T08:56:59;24.90;67.60
12477;DHT22;6303;51.504;6.300;2023-10-09T08:59:28;24.90;67.60
12477;DHT22;6303;51.504;6.300;2023-10-09T09:01:56;24.90;67.60
12477;DHT22;6303;51.504;6.300;2023-10-09T09:04:34;24.90;67.70
12477;DHT22;6303;51.504;6.300;2023-10-09T09:07:02;24.90;67.80
12477;DHT22;6303;51.504;6.300;2023-10-09T09:09:33;24.90;68.00
12477;DHT22;6303;51.504;6.300;2023-10-09T09:12:01;24.90;67.80
12477;DHT22;6303;51.504;6.300;2023-10-09T09:14:42;25.00;67.70
12477;DHT22;6303;51.504;6.300;2023-10-09T09:17:22;25.00;67.70
12477;DHT22;6303;51.504;6.300;2023-10-09T09:19:53;25.00;68.20
12477;DHT22;6303;51.504;6.300;2023-10-09T09:22:20;25.10;67.60
12477;DHT22;6303;51.504;6.300;2023-10-09T09:24:58;25.10;67.90
12477;DHT22;6303;51.504;6.300;2023-10-09T09:27:44;25.10;68.20
12477;DHT22;6303;51.504;6.300;2023-10-09T09:30:28;25.10;68.60
12477;DHT22;6303;51.504;6.300;2023-10-09T09:33:00;25.20;69.30
12477;DHT22;6303;51.504;6.300;2023-10-09T09:35:56;25.10;69.70
12477;DHT22;6303;51.504;6.300;2023-10-09T09:38:26;25.80;70.40
12477;DHT22;6303;51.504;6.300;2023-10-09T09:40:56;25.30;70.00
12477;DHT22;6303;51.504;6.300;2023-10-09T09:43:29;25.30;69.60
12477;DHT22;6303;51.504;6.300;2023-10-09T09:46:02;25.30;69.60
12477;DHT22;6303;51.504;6.300;2023-10-09T09:48:37;25.30;69.70
12477;DHT22;6303;51.504;6.300;2023-10-09T09:51:12;25.30;69.50
12477;DHT22;6303;51.504;6.300;2023-10-09T09:53:43;25.30;69.70
12477;DHT22;6303;51.504;6.300;2023-10-09T09:56:15;25.40;69.90
12477;DHT22;6303;51.504;6.300;2023-10-09T09:58:50;25.30;68.90
12477;DHT22;6303;51.504;6.300;2023-10-09T10:01:23;25.40;69.20
12477;DHT22;6303;51.504;6.300;2023-10-09T10:03:56;25.40;68.90
12477;DHT22;6303;51.504;6.300;2023-10-09T10:06:25;25.40;69.20
12477;DHT22;6303;51.504;6.300;2023-10-09T10:08:55;25.40;69.20
12477;DHT22;6303;51.504;6.300;2023-10-09T10:11:43;25.50;69.30
12477;DHT22;6303;51.504;6.300;2023-10-09T10:14:11;25.50;69.20
12477;DHT22;6303;51.504;6.300;2023-10-09T10:17:05;25.50;69.30
12477;DHT22;6303;51.504;6.300;2023-10-09T10:20:07;25.50;69.20
12477;DHT22;6303;51.504;6.300;2023-10-09T10:23:15;25.50;69.00
12477;DHT22;6303;51.504;6.300;2023-10-09T10:25:45;25.60;69.40
12477;DHT22;6303;51.504;6.300;2023-10-09T10:28:19;25.60;69.10
12477;DHT22;6303;51.504;6.300;2023-10-09T10:31:04;25.60;69.40
12477;DHT22;6303;51.504;6.300;2023-10-09T10:34:04;25.70;69.20
12477;DHT22;6303;51.504;6.300;2023-10-09T10:36:36;25.70;69.20
12477;DHT22;6303;51.504;6.300;2023-10-09T10:39:09;25.70;69.10
12477;DHT22;6303;51.504;6.300;2023-10-09T10:41:37;25.70;68.90
12477;DHT22;6303;51.504;6.300;2023-10-09T10:44:25;25.70;69.10
12477;DHT22;6303;51.504;6.300;2023-10-09T10:47:03;25.70;68.50
12477;DHT22;6303;51.504;6.300;2023-10-09T10:49:32;25.70;68.50
12477;DHT22;6303;51.504;6.300;2023-10-09T10:52:03;25.70;68.70
12477;DHT22;6303;51.504;6.300;2023-10-09T10:54:43;25.70;68.70
12477;DHT22;6303;51.504;6.300;2023-10-09T10:57:35;25.80;68.80
12477;DHT22;6303;51.504;6.300;2023-10-09T11:00:21;25.80;68.60
12477;DHT22;6303;51.504;6.300;2023-10-09T11:03:06;25.80;68.60
12477;DHT22;6303;51.504;6.300;2023-10-09T11:05:47;25.80;68.50
12477;DHT22;6303;51.504;6.300;2023-10-09T11:08:17;25.90;68.70
12477;DHT22;6303;51.504;6.300;2023-10-09T11:10:50;25.90;68.50
12477;DHT22;6303;51.504;6.300;2023-10-09T11:13:23;25.90;68.50
12477;DHT22;6303;51.504;6.300;2023-10-09T11:16:01;25.90;68.50
12477;DHT22;6303;51.504;6.300;2023-10-09T11:18:54;25.90;68.50
12477;DHT22;6303;51.504;6.300;2023-10-09T11:21:24;25.90;68.50
12477;DHT22;6303;51.504;6.300;2023-10-09T11:23:58;25.90;68.50
12477;DHT22;6303;51.504;6.300;2023-10-09T11:26:39;25.90;68.50
12477;DHT22;6303;51.504;6.300;2023-10-09T11:29:08;25.90;68.30
12477;DHT22;6303;51.504;6.300;2023-10-09T11:31:42;25.90;68.30
12477;DHT22;6303;51.504;6.300;2023-10-09T11:34:23;26.00;68.20
12477;DHT22;6303;51.504;6.300;2023-10-09T11:37:00;25.90;68.10
12477;DHT22;6303;51.504;6.300;2023-10-09T11:39:30;26.00;68.20
12477;DHT22;6303;51.504;6.300;2023-10-09T11:42:07;26.00;68.10
12477;DHT22;6303;51.504;6.300;2023-10-09T11:44:38;26.00;68.20
12477;DHT22;6303;51.504;6.300;2023-10-09T11:47:05;25.90;68.10
12477;DHT22;6303;51.504;6.300;2023-10-09T11:49:50;26.00;68.20
12477;DHT22;6303;51.504;6.300;2023-10-09T11:52:25;26.00;68.20
12477;DHT22;6303;51.504;6.300;2023-10-09T11:55:05;26.00;68.20
12477;DHT22;6303;51.504;6.300;2023-10-09T11:57:33;26.00;68.00
12477;DHT22;6303;51.504;6.300;2023-10-09T12:00:02;26.00;68.10
12477;DHT22;6303;51.504;6.300;2023-10-09T12:02:50;26.00;68.10
12477;DHT22;6303;51.504;6.300;2023-10-09T12:05:18;26.00;68.10
12477;DHT22;6303;51.504;6.300;2023-10-09T12:07:47;26.00;68.10
12477;DHT22;6303;51.504;6.300;2023-10-09T12:10:19;26.00;68.10
12477;DHT22;6303;51.504;6.300;2023-10-09T12:12:51;25.90;68.00
12477;DHT22;6303;51.504;6.300;2023-10-09T12:15:18;25.90;68.10
12477;DHT22;6303;51.504;6.300;2023-10-09T12:17:48;25.90;68.20
12477;DHT22;6303;51.504;6.300;2023-10-09T12:20:16;25.90;68.30
12477;DHT22;6303;51.504;6.300;2023-10-09T12:22:58;25.90;68.30
12477;DHT22;6303;51.504;6.300;2023-10-09T12:25:26;25.90;68.30
12477;DHT22;6303;51.504;6.300;2023-10-09T12:27:57;25.90;68.30
12477;DHT22;6303;51.504;6.300;2023-10-09T12:30:26;25.90;68.10
12477;DHT22;6303;51.504;6.300;2023-10-09T12:32:54;26.00;68.10
12477;DHT22;6303;51.504;6.300;2023-10-09T12:35:23;26.00;68.20
12477;DHT22;6303;51.504;6.300;2023-10-09T12:37:51;25.90;68.30
12477;DHT22;6303;51.504;6.300;2023-10-09T12:40:22;25.90;68.40
12477;DHT22;6303;51.504;6.300;2023-10-09T12:42:55;25.90;68.50
12477;DHT22;6303;51.504;6.300;2023-10-09T12:45:25;25.90;68.50
12477;DHT22;6303;51.504;6.300;2023-10-09T12:47:53;26.00;68.60
12477;DHT22;6303;51.504;6.300;2023-10-09T12:50:25;26.00;68.10
12477;DHT22;6303;51.504;6.300;2023-10-09T12:52:55;26.00;67.60
12477;DHT22;6303;51.504;6.300;2023-10-09T12:55:29;25.80;67.70
12477;DHT22;6303;51.504;6.300;2023-10-09T12:58:02;26.00;68.50
12477;DHT22;6303;51.504;6.300;2023-10-09T13:00:34;26.10;68.20
12477;DHT22;6303;51.504;6.300;2023-10-09T13:03:05;26.10;67.70
12477;DHT22;6303;51.504;6.300;2023-10-09T13:05:44;26.10;67.60
12477;DHT22;6303;51.504;6.300;2023-10-09T13:08:19;26.10;67.50
12477;DHT22;6303;51.504;6.300;2023-10-09T13:10:52;26.10;67.70
12477;DHT22;6303;51.504;6.300;2023-10-09T13:13:27;26.20;67.80
12477;DHT22;6303;51.504;6.300;2023-10-09T13:16:12;26.10;67.70
12477;DHT22;6303;51.504;6.300;2023-10-09T13:18:48;26.20;68.30
12477;DHT22;6303;51.504;6.300;2023-10-09T13:21:18;26.20;67.80
12477;DHT22;6303;51.504;6.300;2023-10-09T13:23:46;26.20;67.70
12477;DHT22;6303;51.504;6.300;2023-10-09T13:26:17;26.20;67.80
12477;DHT22;6303;51.504;6.300;2023-10-09T13:28:46;26.20;68.00
12477;DHT22;6303;51.504;6.300;2023-10-09T13:31:15;26.20;68.10
12477;DHT22;6303;51.504;6.300;2023-10-09T13:33:44;26.20;68.50
12477;DHT22;6303;51.504;6.300;2023-10-09T13:36:12;26.20;68.50
12477;DHT22;6303;51.504;6.300;2023-10-09T13:38:45;26.20;68.30
12477;DHT22;6303;51.504;6.300;2023-10-09T13:41:13;26.20;68.40
12477;DHT22;6303;51.504;6.300;2023-10-09T13:43:44;26.20;68.30
12477;DHT22;6303;51.504;6.300;2023-10-09T13:46:12;26.20;68.50
12477;DHT22;6303;51.504;6.300;2023-10-09T13:48:44;26.20;68.50
12477;DHT22;6303;51.504;6.300;2023-10-09T13:51:12;26.20;68.50
12477;DHT22;6303;51.504;6.300;2023-10-09T13:53:44;26.40;68.70
12477;DHT22;6303;51.504;6.300;2023-10-09T13:56:13;26.20;68.60
12477;DHT22;6303;51.504;6.300;2023-10-09T13:58:51;26.20;68.60
12477;DHT22;6303;51.504;6.300;2023-10-09T14:01:21;26.20;68.70
12477;DHT22;6303;51.504;6.300;2023-10-09T14:03:55;26.20;68.70
12477;DHT22;6303;51.504;6.300;2023-10-09T14:06:24;26.20;68.60
12477;DHT22;6303;51.504;6.300;2023-10-09T14:08:58;26.20;68.60
12477;DHT22;6303;51.504;6.300;2023-10-09T14:11:26;26.20;68.70
12477;DHT22;6303;51.504;6.300;2023-10-09T14:13:55;26.20;68.80
12477;DHT22;6303;51.504;6.300;2023-10-09T14:16:22;26.20;68.80
12477;DHT22;6303;51.504;6.300;2023-10-09T14:18:56;26.10;68.90
12477;DHT22;6303;51.504;6.300;2023-10-09T14:21:25;26.10;69.00
12477;DHT22;6303;51.504;6.300;2023-10-09T14:23:54;26.10;69.20
12477;DHT22;6303;51.504;6.300;2023-10-09T14:26:24;26.10;69.30
12477;DHT22;6303;51.504;6.300;2023-10-09T14:28:52;26.10;69.40
12477;DHT22;6303;51.504;6.300;2023-10-09T14:31:21;26.10;69.50
12477;DHT22;6303;51.504;6.300;2023-10-09T14:33:53;26.00;69.50
12477;DHT22;6303;51.504;6.300;2023-10-09T14:36:20;26.00;69.60
12477;DHT22;6303;51.504;6.300;2023-10-09T14:38:49;26.00;69.60
12477;DHT22;6303;51.504;6.300;2023-10-09T14:41:19;26.00;69.60
12477;DHT22;6303;51.504;6.300;2023-10-09T14:43:49;26.00;69.60
12477;DHT22;6303;51.504;6.300;2023-10-09T14:46:16;26.00;69.90
12477;DHT22;6303;51.504;6.300;2023-10-09T14:48:50;26.00;69.90
12477;DHT22;6303;51.504;6.300;2023-10-09T14:51:20;25.90;69.80
12477;DHT22;6303;51.504;6.300;2023-10-09T14:53:55;25.90;69.90
12477;DHT22;6303;51.504;6.300;2023-10-09T14:56:25;25.90;70.00
12477;DHT22;6303;51.504;6.300;2023-10-09T14:58:56;25.90;70.20
12477;DHT22;6303;51.504;6.300;2023-10-09T15:01:24;25.90;69.80
12477;DHT22;6303;51.504;6.300;2023-10-09T15:03:56;25.90;69.80
12477;DHT22;6303;51.504;6.300;2023-10-09T15:06:25;25.90;69.90
12477;DHT22;6303;51.504;6.300;2023-10-09T15:08:57;25.90;69.90
12477;DHT22;6303;51.504;6.300;2023-10-09T15:11:26;25.90;70.00
12477;DHT22;6303;51.504;6.300;2023-10-09T15:13:55;25.90;70.00
12477;DHT22;6303;51.504;6.300;2023-10-09T15:16:24;25.90;69.90
12477;DHT22;6303;51.504;6.300;2023-10-09T15:18:56;25.90;70.30
12477;DHT22;6303;51.504;6.300;2023-10-09T15:21:30;25.90;69.80
12477;DHT22;6303;51.504;6.300;2023-10-09T15:23:59;26.00;69.90
12477;DHT22;6303;51.504;6.300;2023-10-09T15:26:26;26.00;69.80
12477;DHT22;6303;51.504;6.300;2023-10-09T15:29:00;26.00;69.80
12477;DHT22;6303;51.504;6.300;2023-10-09T15:31:32;26.00;69.80
12477;DHT22;6303;51.504;6.300;2023-10-09T15:34:01;26.00;69.70
12477;DHT22;6303;51.504;6.300;2023-10-09T15:36:35;26.00;69.80
12477;DHT22;6303;51.504;6.300;2023-10-09T15:39:03;26.00;69.80
12477;DHT22;6303;51.504;6.300;2023-10-09T15:41:33;26.00;69.90
12477;DHT22;6303;51.504;6.300;2023-10-09T15:44:01;26.00;70.10
12477;DHT22;6303;51.504;6.300;2023-10-09T15:46:29;26.00;69.90
12477;DHT22;6303;51.504;6.300;2023-10-09T15:49:02;26.00;69.90
12477;DHT22;6303;51.504;6.300;2023-10-09T15:51:30;26.00;70.10
12477;DHT22;6303;51.504;6.300;2023-10-09T15:53:58;26.00;70.80
12477;DHT22;6303;51.504;6.300;2023-10-09T15:56:27;26.00;70.10
12477;DHT22;6303;51.504;6.300;2023-10-09T15:58:55;26.00;70.40
12477;DHT22;6303;51.504;6.300;2023-10-09T16:01:23;26.00;70.40
12477;DHT22;6303;51.504;6.300;2023-10-09T16:03:51;25.90;70.40
12477;DHT22;6303;51.504;6.300;2023-10-09T16:06:20;25.90;70.50
12477;DHT22;6303;51.504;6.300;2023-10-09T16:08:53;25.90;70.50
12477;DHT22;6303;51.504;6.300;2023-10-09T16:11:21;25.90;70.60
12477;DHT22;6303;51.504;6.300;2023-10-09T16:13:49;25.90;70.60
12477;DHT22;6303;51.504;6.300;2023-10-09T16:16:24;25.90;70.70
12477;DHT22;6303;51.504;6.300;2023-10-09T16:18:52;25.90;70.70
12477;DHT22;6303;51.504;6.300;2023-10-09T16:21:21;25.90;70.70
12477;DHT22;6303;51.504;6.300;2023-10-09T16:23:48;25.90;70.70
12477;DHT22;6303;51.504;6.300;2023-10-09T16:26:16;25.90;70.70
12477;DHT22;6303;51.504;6.300;2023-10-09T16:28:45;25.90;70.70